createdAt,value
2017-07-10T00:00:35.255Z,17.19
2017-07-10T00:01:47.541Z,17.3
2017-07-10T00:03:00.158Z,17.2
2017-07-10T00:04:12.389Z,17.2
2017-07-10T00:05:24.679Z,17.24
2017-07-10T00:06:37.270Z,17.2
2017-07-10T00:07:49.845Z,17.16
2017-07-10T00:09:02.477Z,17.19
2017-07-10T00:10:14.780Z,17.14
2017-07-10T00:11:26.478Z,17.14
2017-07-10T00:12:38.710Z,17.1
2017-07-10T00:13:51.286Z,17.16
2017-07-10T00:15:03.840Z,17.13
2017-07-10T00:16:15.827Z,17.14
2017-07-10T00:17:28.434Z,17.12
2017-07-10T00:18:40.736Z,17.05
2017-07-10T00:19:53.335Z,17.04
2017-07-10T00:21:05.694Z,17.01
2017-07-10T00:22:17.957Z,16.92
2017-07-10T00:23:29.586Z,17.02
2017-07-10T00:24:41.859Z,16.99
2017-07-10T00:25:54.178Z,16.89
2017-07-10T00:27:06.400Z,17.02
2017-07-10T00:28:18.976Z,16.99
2017-07-10T00:29:31.305Z,16.98
2017-07-10T00:30:43.886Z,16.87
2017-07-10T00:31:56.484Z,16.86
2017-07-10T00:33:08.728Z,16.87
2017-07-10T00:34:21.378Z,16.86
2017-07-10T00:35:33.972Z,16.83
2017-07-10T00:36:46.210Z,16.86
2017-07-10T00:37:58.155Z,16.74
2017-07-10T00:39:10.425Z,16.83
2017-07-10T00:40:23.009Z,16.82
2017-07-10T00:41:35.276Z,16.86
2017-07-10T00:42:47.589Z,16.68
2017-07-10T00:43:59.510Z,16.82
2017-07-10T00:45:11.824Z,16.69
2017-07-10T00:46:24.094Z,16.79
2017-07-10T00:47:36.055Z,16.77
2017-07-10T00:48:48.351Z,16.73
2017-07-10T00:50:00.878Z,16.86
2017-07-10T00:51:12.849Z,16.82
2017-07-10T00:52:25.475Z,16.74
2017-07-10T00:53:37.763Z,16.72
2017-07-10T00:54:50.384Z,16.72
2017-07-10T00:56:02.713Z,16.83
2017-07-10T00:57:14.698Z,16.69
2017-07-10T00:58:26.961Z,16.69
2017-07-10T00:59:39.565Z,16.69
2017-07-10T01:00:52.127Z,16.74
2017-07-10T01:02:04.705Z,16.74
2017-07-10T01:03:17.034Z,16.68
2017-07-10T01:04:28.360Z,16.64
2017-07-10T01:05:40.949Z,16.68
2017-07-10T01:06:52.590Z,16.66
2017-07-10T01:08:04.548Z,16.69
2017-07-10T01:09:16.813Z,16.62
2017-07-10T01:10:29.052Z,16.58
2017-07-10T01:11:41.366Z,16.68
2017-07-10T01:12:53.948Z,16.62
2017-07-10T01:14:05.952Z,16.61
2017-07-10T01:15:18.211Z,16.59
2017-07-10T01:16:30.412Z,16.54
2017-07-10T01:17:42.661Z,16.55
2017-07-10T01:18:55.267Z,16.49
2017-07-10T01:20:07.827Z,16.47
2017-07-10T01:21:20.140Z,16.54
2017-07-10T01:22:32.047Z,16.47
2017-07-10T01:23:44.025Z,16.47
2017-07-10T01:24:56.554Z,16.47
2017-07-10T01:26:08.823Z,16.46
2017-07-10T01:27:21.431Z,16.43
2017-07-10T01:28:33.748Z,16.43
2017-07-10T01:29:46.405Z,16.41
2017-07-10T01:30:58.975Z,16.39
2017-07-10T01:32:11.545Z,16.37
2017-07-10T01:33:24.049Z,16.4
2017-07-10T01:34:36.346Z,16.37
2017-07-10T01:35:48.867Z,16.31
2017-07-10T01:37:01.091Z,16.39
2017-07-10T01:38:13.339Z,16.4
2017-07-10T01:39:25.881Z,16.36
2017-07-10T01:40:38.150Z,16.31
2017-07-10T01:41:50.038Z,16.29
2017-07-10T01:43:02.322Z,16.39
2017-07-10T01:44:14.647Z,16.28
2017-07-10T01:45:26.609Z,16.36
2017-07-10T01:46:38.528Z,16.17
2017-07-10T01:47:51.053Z,16.29
2017-07-10T01:49:03.006Z,16.21
2017-07-10T01:50:15.285Z,16.25
2017-07-10T01:51:27.811Z,16.32
2017-07-10T01:52:40.373Z,16.29
2017-07-10T01:53:52.940Z,16.22
2017-07-10T01:55:05.233Z,16.18
2017-07-10T01:56:17.785Z,16.25
2017-07-10T01:57:30.401Z,16.32
2017-07-10T01:58:42.725Z,16.29
2017-07-10T01:59:55.401Z,16.24
2017-07-10T02:01:07.412Z,16.22
2017-07-10T02:02:19.984Z,16.22
2017-07-10T02:03:32.271Z,16.21
2017-07-10T02:04:44.836Z,16.24
2017-07-10T02:05:57.472Z,16.28
2017-07-10T02:07:10.060Z,16.25
2017-07-10T02:08:22.042Z,16.16
2017-07-10T02:09:34.344Z,16.31
2017-07-10T02:10:46.653Z,16.24
2017-07-10T02:11:59.198Z,16.18
2017-07-10T02:13:11.120Z,16.22
2017-07-10T02:14:23.672Z,16.22
2017-07-10T02:15:36.273Z,16.16
2017-07-10T02:16:48.559Z,16.24
2017-07-10T02:18:01.129Z,16.21
2017-07-10T02:19:13.680Z,16.22
2017-07-10T02:20:25.945Z,16.18
2017-07-10T02:21:38.573Z,16.21
2017-07-10T02:22:50.843Z,16.26
2017-07-10T02:24:02.788Z,16.29
2017-07-10T02:25:15.353Z,16.24
2017-07-10T02:26:27.926Z,16.29
2017-07-10T02:27:40.490Z,16.25
2017-07-10T02:28:53.071Z,16.22
2017-07-10T02:30:05.064Z,16.26
2017-07-10T02:31:17.629Z,16.24
2017-07-10T02:32:30.149Z,16.26
2017-07-10T02:33:42.739Z,16.25
2017-07-10T02:34:55.308Z,16.25
2017-07-10T02:36:07.864Z,16.22
2017-07-10T02:37:20.101Z,16.18
2017-07-10T02:38:32.021Z,16.26
2017-07-10T02:39:44.658Z,16.26
2017-07-10T02:40:56.871Z,16.25
2017-07-10T02:42:08.549Z,16.22
2017-07-10T02:43:21.116Z,16.24
2017-07-10T02:44:33.707Z,16.18
2017-07-10T02:45:45.619Z,16.17
2017-07-10T02:46:57.576Z,16.22
2017-07-10T02:48:09.820Z,16.18
2017-07-10T02:49:21.792Z,16.25
2017-07-10T02:50:34.038Z,16.17
2017-07-10T02:51:46.659Z,16.21
2017-07-10T02:52:59.273Z,16.08
2017-07-10T02:54:11.910Z,16.08
2017-07-10T02:55:24.547Z,16.16
2017-07-10T02:56:36.774Z,16
2017-07-10T02:57:49.028Z,16.05
2017-07-10T02:59:01.604Z,16.1
2017-07-10T03:00:14.211Z,16.08
2017-07-10T03:01:26.224Z,16.02
2017-07-10T03:02:38.501Z,15.96
2017-07-10T03:03:51.076Z,16.03
2017-07-10T03:05:03.367Z,16
2017-07-10T03:06:15.329Z,15.98
2017-07-10T03:07:27.980Z,16.02
2017-07-10T03:08:40.258Z,15.98
2017-07-10T03:09:52.240Z,16.03
2017-07-10T03:11:04.836Z,15.94
2017-07-10T03:12:17.089Z,15.99
2017-07-10T03:13:29.010Z,16
2017-07-10T03:14:41.288Z,15.99
2017-07-10T03:15:53.592Z,15.92
2017-07-10T03:17:06.150Z,16.02
2017-07-10T03:18:17.862Z,16.03
2017-07-10T03:19:30.114Z,16.05
2017-07-10T03:20:42.384Z,16.02
2017-07-10T03:21:55.269Z,16.02
2017-07-10T03:23:07.184Z,16.05
2017-07-10T03:24:19.500Z,16
2017-07-10T03:25:32.120Z,16.03
2017-07-10T03:26:44.664Z,16.13
2017-07-10T03:27:56.985Z,16.05
2017-07-10T03:29:09.545Z,16.09
2017-07-10T03:30:21.511Z,16.1
2017-07-10T03:31:32.849Z,16.13
2017-07-10T03:32:45.145Z,16.25
2017-07-10T03:33:57.452Z,16.18
2017-07-10T03:35:10.036Z,16.25
2017-07-10T03:36:22.582Z,16.26
2017-07-10T03:37:34.553Z,16.31
2017-07-10T03:38:46.861Z,16.34
2017-07-10T03:39:59.449Z,16.36
2017-07-10T03:41:11.752Z,16.4
2017-07-10T03:42:24.290Z,16.36
2017-07-10T03:43:36.278Z,16.5
2017-07-10T03:44:48.255Z,16.43
2017-07-10T03:46:00.878Z,16.47
2017-07-10T03:47:13.147Z,16.54
2017-07-10T03:48:25.396Z,16.51
2017-07-10T03:49:37.321Z,16.61
2017-07-10T03:50:49.913Z,16.58
2017-07-10T03:52:02.584Z,16.66
2017-07-10T03:53:15.182Z,16.62
2017-07-10T03:54:27.813Z,16.72
2017-07-10T03:55:40.123Z,16.72
2017-07-10T03:56:52.363Z,16.89
2017-07-10T03:58:04.909Z,16.91
2017-07-10T03:59:17.540Z,16.89
2017-07-10T04:00:30.089Z,16.86
2017-07-10T04:01:42.700Z,16.97
2017-07-10T04:02:55.285Z,16.98
2017-07-10T04:04:07.548Z,16.97
2017-07-10T04:05:20.111Z,16.92
2017-07-10T04:06:32.698Z,17.04
2017-07-10T04:07:45.005Z,16.99
2017-07-10T04:08:57.247Z,17.1
2017-07-10T04:10:09.180Z,17.16
2017-07-10T04:11:20.853Z,17.05
2017-07-10T04:12:33.184Z,17.1
2017-07-10T04:13:45.456Z,17.19
2017-07-10T04:14:58.002Z,17.16
2017-07-10T04:16:10.651Z,17.27
2017-07-10T04:17:22.961Z,17.27
2017-07-10T04:18:35.512Z,17.19
2017-07-10T04:19:47.442Z,17.32
2017-07-10T04:21:00.021Z,17.38
2017-07-10T04:22:12.259Z,17.42
2017-07-10T04:23:23.923Z,17.39
2017-07-10T04:24:35.252Z,17.42
2017-07-10T04:25:47.891Z,17.52
2017-07-10T04:27:00.518Z,17.56
2017-07-10T04:28:12.456Z,17.63
2017-07-10T04:29:24.428Z,17.56
2017-07-10T04:30:37.053Z,17.57
2017-07-10T04:31:49.350Z,17.66
2017-07-10T04:33:01.557Z,17.63
2017-07-10T04:34:14.143Z,17.71
2017-07-10T04:35:26.808Z,17.72
2017-07-10T04:36:39.371Z,17.8
2017-07-10T04:37:51.631Z,17.82
2017-07-10T04:39:04.208Z,17.84
2017-07-10T04:40:16.793Z,17.9
2017-07-10T04:41:29.044Z,17.93
2017-07-10T04:42:40.669Z,17.93
2017-07-10T04:43:53.278Z,17.98
2017-07-10T04:45:05.852Z,18.02
2017-07-10T04:46:18.389Z,18.16
2017-07-10T04:47:30.598Z,18.13
2017-07-10T04:48:42.798Z,18.26
2017-07-10T04:49:55.409Z,18.16
2017-07-10T04:51:07.630Z,18.31
2017-07-10T04:52:20.186Z,18.31
2017-07-10T04:53:32.823Z,18.42
2017-07-10T04:54:45.109Z,18.42
2017-07-10T04:55:57.413Z,18.49
2017-07-10T04:57:09.336Z,18.57
2017-07-10T04:58:21.662Z,18.63
2017-07-10T04:59:34.251Z,18.63
2017-07-10T05:00:46.873Z,18.67
2017-07-10T05:01:59.203Z,18.64
2017-07-10T05:03:11.445Z,18.74
2017-07-10T05:04:24.085Z,18.81
2017-07-10T05:05:36.662Z,18.89
2017-07-10T05:06:49.245Z,18.94
2017-07-10T05:08:01.259Z,18.92
2017-07-10T05:09:13.871Z,18.92
2017-07-10T05:10:26.466Z,19.16
2017-07-10T05:11:38.158Z,19.17
2017-07-10T05:12:50.754Z,19.22
2017-07-10T05:14:03.010Z,19.26
2017-07-10T05:15:15.571Z,19.29
2017-07-10T05:16:27.917Z,19.38
2017-07-10T05:17:40.539Z,19.39
2017-07-10T05:18:52.817Z,19.41
2017-07-10T05:20:05.431Z,19.41
2017-07-10T05:21:17.383Z,19.41
2017-07-10T05:22:29.365Z,19.48
2017-07-10T05:23:41.344Z,19.45
2017-07-10T05:24:53.295Z,19.55
2017-07-10T05:26:05.861Z,19.63
2017-07-10T05:27:18.149Z,19.63
2017-07-10T05:28:30.678Z,19.71
2017-07-10T05:29:43.280Z,19.63
2017-07-10T05:30:55.573Z,19.7
2017-07-10T05:32:08.452Z,19.7
2017-07-10T05:33:20.787Z,19.67
2017-07-10T05:34:32.796Z,19.75
2017-07-10T05:35:44.758Z,19.77
2017-07-10T05:36:57.006Z,19.77
2017-07-10T05:38:09.597Z,19.78
2017-07-10T05:39:21.833Z,19.87
2017-07-10T05:40:34.154Z,19.79
2017-07-10T05:41:46.769Z,19.87
2017-07-10T05:42:58.755Z,19.92
2017-07-10T05:44:11.332Z,20.03
2017-07-10T05:45:23.887Z,20.11
2017-07-10T05:46:36.467Z,20.11
2017-07-10T05:47:49.046Z,20.19
2017-07-10T05:49:01.625Z,20.26
2017-07-10T05:50:14.162Z,20.24
2017-07-10T05:51:26.717Z,20.22
2017-07-10T05:52:38.696Z,20.22
2017-07-10T05:53:51.370Z,20.27
2017-07-10T05:55:03.991Z,20.37
2017-07-10T05:56:16.359Z,20.39
2017-07-10T05:57:28.930Z,20.48
2017-07-10T05:58:41.234Z,20.59
2017-07-10T05:59:53.172Z,20.55
2017-07-10T06:01:05.417Z,20.58
2017-07-10T06:02:17.627Z,20.64
2017-07-10T06:03:29.864Z,20.73
2017-07-10T06:04:42.330Z,20.78
2017-07-10T06:05:54.549Z,20.8
2017-07-10T06:07:06.871Z,20.95
2017-07-10T06:08:19.134Z,20.93
2017-07-10T06:09:31.101Z,21
2017-07-10T06:10:43.677Z,21.04
2017-07-10T06:11:55.589Z,21.01
2017-07-10T06:13:07.827Z,21.11
2017-07-10T06:14:20.423Z,21.22
2017-07-10T06:15:32.391Z,21.17
2017-07-10T06:16:43.991Z,21.25
2017-07-10T06:17:56.285Z,21.23
2017-07-10T06:19:08.220Z,21.17
2017-07-10T06:20:20.797Z,21.3
2017-07-10T06:21:32.782Z,21.28
2017-07-10T06:22:45.368Z,21.44
2017-07-10T06:23:57.640Z,21.51
2017-07-10T06:25:09.911Z,21.58
2017-07-10T06:26:22.456Z,21.66
2017-07-10T06:27:34.685Z,21.77
2017-07-10T06:28:47.273Z,21.8
2017-07-10T06:29:59.838Z,21.8
2017-07-10T06:31:12.446Z,21.78
2017-07-10T06:32:24.734Z,21.92
2017-07-10T06:33:37.130Z,22.04
2017-07-10T06:34:48.205Z,22.19
2017-07-10T06:36:00.507Z,22.16
2017-07-10T06:37:12.805Z,22.25
2017-07-10T06:38:25.372Z,22.4
2017-07-10T06:39:38.035Z,22.52
2017-07-10T06:40:50.332Z,22.63
2017-07-10T06:42:02.021Z,22.62
2017-07-10T06:43:13.974Z,22.76
2017-07-10T06:44:26.206Z,22.78
2017-07-10T06:45:38.795Z,22.83
2017-07-10T06:46:51.394Z,22.89
2017-07-10T06:48:03.710Z,22.93
2017-07-10T06:49:15.362Z,22.89
2017-07-10T06:50:27.998Z,22.91
2017-07-10T06:51:40.587Z,22.91
2017-07-10T06:52:52.541Z,22.93
2017-07-10T06:54:04.463Z,22.96
2017-07-10T06:55:16.711Z,22.91
2017-07-10T06:56:28.697Z,22.98
2017-07-10T06:57:41.403Z,22.95
2017-07-10T06:58:53.982Z,22.96
2017-07-10T07:00:06.618Z,23.04
2017-07-10T07:01:18.265Z,22.92
2017-07-10T07:02:29.938Z,22.96
2017-07-10T07:03:41.830Z,22.89
2017-07-10T07:04:53.827Z,22.92
2017-07-10T07:06:06.071Z,22.93
2017-07-10T07:07:18.049Z,22.77
2017-07-10T07:08:30.692Z,22.83
2017-07-10T07:09:42.920Z,22.76
2017-07-10T07:10:55.231Z,22.76
2017-07-10T07:12:07.469Z,22.65
2017-07-10T07:13:20.053Z,22.63
2017-07-10T07:14:32.696Z,22.52
2017-07-10T07:15:44.670Z,22.51
2017-07-10T07:16:57.303Z,22.51
2017-07-10T07:18:09.859Z,22.44
2017-07-10T07:19:21.778Z,22.46
2017-07-10T07:20:34.411Z,22.56
2017-07-10T07:21:46.656Z,22.52
2017-07-10T07:22:59.287Z,22.59
2017-07-10T07:24:10.938Z,22.65
2017-07-10T07:25:22.237Z,22.59
2017-07-10T07:26:34.792Z,22.65
2017-07-10T07:27:47.065Z,22.67
2017-07-10T07:28:59.677Z,22.8
2017-07-10T07:30:11.940Z,22.84
2017-07-10T07:31:24.622Z,22.74
2017-07-10T07:32:36.599Z,22.81
2017-07-10T07:33:48.854Z,22.89
2017-07-10T07:35:01.124Z,22.96
2017-07-10T07:36:13.373Z,22.95
2017-07-10T07:37:25.733Z,22.96
2017-07-10T07:38:37.998Z,23.01
2017-07-10T07:39:50.624Z,22.98
2017-07-10T07:41:02.920Z,22.96
2017-07-10T07:42:15.481Z,23.01
2017-07-10T07:43:27.437Z,23.02
2017-07-10T07:44:39.669Z,22.93
2017-07-10T07:45:51.892Z,23.01
2017-07-10T07:47:03.249Z,22.95
2017-07-10T07:48:14.928Z,22.95
2017-07-10T07:49:27.188Z,22.95
2017-07-10T07:50:39.458Z,22.98
2017-07-10T07:51:51.766Z,23.04
2017-07-10T07:53:03.431Z,23.04
2017-07-10T07:54:15.435Z,23.1
2017-07-10T07:55:27.722Z,22.96
2017-07-10T07:56:40.333Z,22.96
2017-07-10T07:57:52.668Z,22.92
2017-07-10T07:59:05.243Z,22.96
2017-07-10T08:00:17.889Z,22.98
2017-07-10T08:01:30.534Z,22.93
2017-07-10T08:02:42.836Z,22.92
2017-07-10T08:03:55.129Z,22.83
2017-07-10T08:05:07.056Z,22.81
2017-07-10T08:06:19.385Z,22.8
2017-07-10T08:07:32.013Z,22.76
2017-07-10T08:08:43.691Z,22.77
2017-07-10T08:09:55.660Z,22.73
2017-07-10T08:11:07.943Z,22.8
2017-07-10T08:12:20.629Z,22.78
2017-07-10T08:13:32.622Z,22.7
2017-07-10T08:14:45.245Z,22.52
2017-07-10T08:15:57.912Z,22.46
2017-07-10T08:17:10.532Z,22.34
2017-07-10T08:18:22.454Z,22.33
2017-07-10T08:19:34.398Z,22.22
2017-07-10T08:20:46.967Z,22.22
2017-07-10T08:21:59.543Z,22.21
2017-07-10T08:23:10.595Z,22.16
2017-07-10T08:24:22.574Z,22.01
2017-07-10T08:25:34.506Z,21.96
2017-07-10T08:26:46.449Z,21.85
2017-07-10T08:27:57.468Z,21.78
2017-07-10T08:29:09.471Z,21.66
2017-07-10T08:30:21.740Z,21.6
2017-07-10T08:31:33.693Z,21.47
2017-07-10T08:32:45.365Z,21.3
2017-07-10T08:33:57.593Z,21.19
2017-07-10T08:35:09.826Z,20.88
2017-07-10T08:36:22.445Z,20.73
2017-07-10T08:37:35.060Z,20.42
2017-07-10T08:38:47.676Z,20.37
2017-07-10T08:40:00.183Z,20.12
2017-07-10T08:41:12.532Z,19.99
2017-07-10T08:42:24.857Z,19.84
2017-07-10T08:43:37.074Z,19.67
2017-07-10T08:44:49.331Z,19.55
2017-07-10T08:46:01.033Z,19.37
2017-07-10T08:47:13.029Z,19.19
2017-07-10T08:48:24.968Z,19.09
2017-07-10T08:49:37.221Z,18.86
2017-07-10T08:50:49.785Z,18.74
2017-07-10T08:52:02.348Z,18.64
2017-07-10T08:53:14.384Z,18.58
2017-07-10T08:54:26.289Z,18.49
2017-07-10T08:55:38.901Z,18.43
2017-07-10T08:56:50.833Z,18.36
2017-07-10T08:58:03.160Z,18.36
2017-07-10T08:59:15.192Z,18.23
2017-07-10T09:00:27.448Z,18.21
2017-07-10T09:01:39.454Z,18.11
2017-07-10T09:02:51.988Z,18.03
2017-07-10T09:04:04.580Z,18.09
2017-07-10T09:05:17.194Z,18.08
2017-07-10T09:06:29.117Z,17.91
2017-07-10T09:07:41.415Z,17.9
2017-07-10T09:08:54.010Z,17.82
2017-07-10T09:10:06.675Z,17.87
2017-07-10T09:11:18.909Z,17.86
2017-07-10T09:12:31.162Z,17.82
2017-07-10T09:13:43.768Z,17.8
2017-07-10T09:14:56.028Z,17.78
2017-07-10T09:16:07.082Z,17.78
2017-07-10T09:17:19.364Z,17.73
2017-07-10T09:18:31.024Z,17.73
2017-07-10T09:19:43.580Z,17.72
2017-07-10T09:20:55.497Z,17.6
2017-07-10T09:22:07.472Z,17.68
2017-07-10T09:23:19.075Z,17.65
2017-07-10T09:24:31.414Z,17.54
2017-07-10T09:25:43.375Z,17.6
2017-07-10T09:26:55.632Z,17.68
2017-07-10T09:28:07.627Z,17.57
2017-07-10T09:29:19.562Z,17.66
2017-07-10T09:30:31.162Z,17.54
2017-07-10T09:31:43.090Z,17.54
2017-07-10T09:32:55.078Z,17.59
2017-07-10T09:34:07.069Z,17.6
2017-07-10T09:35:19.352Z,17.52
2017-07-10T09:36:32.021Z,17.71
2017-07-10T09:37:44.651Z,17.65
2017-07-10T09:38:56.957Z,17.68
2017-07-10T09:40:09.224Z,17.65
2017-07-10T09:41:21.196Z,17.63
2017-07-10T09:42:32.817Z,17.69
2017-07-10T09:43:45.366Z,17.6
2017-07-10T09:44:57.591Z,17.69
2017-07-10T09:46:09.229Z,17.73
2017-07-10T09:47:21.862Z,17.76
2017-07-10T09:48:34.146Z,17.72
2017-07-10T09:49:46.710Z,17.75
2017-07-10T09:50:59.280Z,17.75
2017-07-10T09:52:11.483Z,17.71
2017-07-10T09:53:24.088Z,17.8
2017-07-10T09:54:36.677Z,17.76
2017-07-10T09:55:48.628Z,17.79
2017-07-10T09:57:01.270Z,17.78
2017-07-10T09:58:13.188Z,17.69
2017-07-10T09:59:25.752Z,17.73
2017-07-10T10:00:38.009Z,17.73
2017-07-10T10:01:50.605Z,17.75
2017-07-10T10:03:03.235Z,17.72
2017-07-10T10:04:15.475Z,17.73
2017-07-10T10:05:27.792Z,17.69
2017-07-10T10:06:40.102Z,17.72
2017-07-10T10:07:52.675Z,17.71
2017-07-10T10:09:04.069Z,17.69
2017-07-10T10:10:16.665Z,17.69
2017-07-10T10:11:28.935Z,17.69
2017-07-10T10:12:40.864Z,17.72
2017-07-10T10:13:53.118Z,17.73
2017-07-10T10:15:05.437Z,17.84
2017-07-10T10:16:17.416Z,17.79
2017-07-10T10:17:29.984Z,17.86
2017-07-10T10:18:42.625Z,17.84
2017-07-10T10:19:55.215Z,17.84
2017-07-10T10:21:06.828Z,17.87
2017-07-10T10:22:18.833Z,17.91
2017-07-10T10:23:30.778Z,17.95
2017-07-10T10:24:43.066Z,17.94
2017-07-10T10:25:55.669Z,18.02
2017-07-10T10:27:07.651Z,18.02
2017-07-10T10:28:20.321Z,18.12
2017-07-10T10:29:32.249Z,18.13
2017-07-10T10:30:44.240Z,18.12
2017-07-10T10:31:56.826Z,18.21
2017-07-10T10:33:09.169Z,18.19
2017-07-10T10:34:21.768Z,18.28
2017-07-10T10:35:34.034Z,18.28
2017-07-10T10:36:45.675Z,18.27
2017-07-10T10:37:57.615Z,18.24
2017-07-10T10:39:10.309Z,18.36
2017-07-10T10:40:22.295Z,18.41
2017-07-10T10:41:34.146Z,18.41
2017-07-10T10:42:46.822Z,18.49
2017-07-10T10:43:59.109Z,18.57
2017-07-10T10:45:10.795Z,18.61
2017-07-10T10:46:22.750Z,18.61
2017-07-10T10:47:35.320Z,18.79
2017-07-10T10:48:47.608Z,18.79
2017-07-10T10:49:59.887Z,18.82
2017-07-10T10:51:12.134Z,18.86
2017-07-10T10:52:24.353Z,18.97
2017-07-10T10:53:36.031Z,18.94
2017-07-10T10:54:48.257Z,19.16
2017-07-10T10:55:59.951Z,19.09
2017-07-10T10:57:12.599Z,19.17
2017-07-10T10:58:24.583Z,19.23
2017-07-10T10:59:36.566Z,19.39
2017-07-10T11:00:48.202Z,19.27
2017-07-10T11:02:00.508Z,19.37
2017-07-10T11:03:12.148Z,19.32
2017-07-10T11:04:24.775Z,19.38
2017-07-10T11:05:37.098Z,19.49
2017-07-10T11:06:49.711Z,19.49
2017-07-10T11:08:01.993Z,19.57
2017-07-10T11:09:14.696Z,19.63
2017-07-10T11:10:27.308Z,19.59
2017-07-10T11:11:39.278Z,19.63
2017-07-10T11:12:51.874Z,19.78
2017-07-10T11:14:04.179Z,19.81
2017-07-10T11:15:16.144Z,19.82
2017-07-10T11:16:28.383Z,19.9
2017-07-10T11:17:40.704Z,19.97
2017-07-10T11:18:52.667Z,20
2017-07-10T11:20:04.889Z,20.04
2017-07-10T11:21:17.148Z,20.11
2017-07-10T11:22:29.398Z,20.11
2017-07-10T11:23:41.379Z,20.26
2017-07-10T11:24:53.661Z,20.26
2017-07-10T11:26:05.626Z,20.32
2017-07-10T11:27:17.912Z,20.39
2017-07-10T11:28:30.174Z,20.53
2017-07-10T11:29:41.837Z,20.59
2017-07-10T11:30:54.373Z,20.64
2017-07-10T11:32:06.688Z,20.6
2017-07-10T11:33:19.358Z,20.71
2017-07-10T11:34:31.612Z,20.7
2017-07-10T11:35:43.839Z,20.64
2017-07-10T11:36:56.189Z,20.63
2017-07-10T11:38:08.159Z,20.6
2017-07-10T11:39:20.744Z,20.68
2017-07-10T11:40:33.315Z,20.58
2017-07-10T11:41:45.310Z,20.56
2017-07-10T11:42:57.551Z,20.44
2017-07-10T11:44:09.830Z,20.42
2017-07-10T11:45:22.111Z,20.34
2017-07-10T11:46:34.384Z,20.19
2017-07-10T11:47:46.668Z,20.19
2017-07-10T11:48:59.262Z,20.19
2017-07-10T11:50:11.600Z,20.17
2017-07-10T11:51:24.192Z,20.17
2017-07-10T11:52:36.507Z,20.11
2017-07-10T11:53:48.475Z,20.11
2017-07-10T11:55:00.718Z,20.02
2017-07-10T11:56:12.692Z,19.99
2017-07-10T11:57:24.960Z,19.85
2017-07-10T11:58:36.906Z,19.94
2017-07-10T11:59:49.488Z,19.82
2017-07-10T12:01:01.833Z,19.9
2017-07-10T12:02:12.863Z,19.89
2017-07-10T12:03:25.114Z,19.87
2017-07-10T12:04:37.389Z,19.78
2017-07-10T12:05:50.034Z,19.89
2017-07-10T12:07:02.251Z,19.9
2017-07-10T12:08:14.924Z,19.78
2017-07-10T12:09:27.176Z,19.78
2017-07-10T12:10:39.491Z,19.77
2017-07-10T12:11:52.047Z,19.77
2017-07-10T12:13:04.380Z,19.74
2017-07-10T12:14:16.278Z,19.82
2017-07-10T12:15:27.605Z,19.9
2017-07-10T12:16:39.599Z,19.89
2017-07-10T12:17:51.866Z,20.02
2017-07-10T12:19:03.540Z,20.02
2017-07-10T12:20:15.509Z,20.04
2017-07-10T12:21:27.149Z,20.12
2017-07-10T12:22:39.411Z,20.22
2017-07-10T12:23:50.748Z,20.37
2017-07-10T12:25:02.789Z,20.32
2017-07-10T12:26:14.757Z,20.48
2017-07-10T12:27:27.315Z,20.55
2017-07-10T12:28:39.591Z,20.67
2017-07-10T12:29:52.202Z,20.78
2017-07-10T12:31:04.489Z,20.85
2017-07-10T12:32:17.054Z,21.05
2017-07-10T12:33:29.319Z,21.03
2017-07-10T12:34:41.913Z,21.04
2017-07-10T12:35:53.879Z,21.08
2017-07-10T12:37:06.125Z,21.14
2017-07-10T12:38:18.359Z,21.14
2017-07-10T12:39:30.343Z,21.22
2017-07-10T12:40:42.850Z,21.22
2017-07-10T12:41:55.161Z,21.25
2017-07-10T12:43:07.880Z,21.26
2017-07-10T12:44:20.432Z,21.28
2017-07-10T12:45:32.984Z,21.29
2017-07-10T12:46:45.321Z,21.29
2017-07-10T12:47:57.694Z,21.32
2017-07-10T12:49:09.662Z,21.26
2017-07-10T12:50:21.625Z,21.29
2017-07-10T12:51:34.228Z,21.3
2017-07-10T12:52:46.860Z,21.3
2017-07-10T12:53:59.444Z,21.33
2017-07-10T12:55:11.395Z,21.44
2017-07-10T12:56:23.339Z,21.5
2017-07-10T12:57:35.633Z,21.66
2017-07-10T12:58:48.170Z,21.81
2017-07-10T13:00:00.699Z,21.97
2017-07-10T13:01:12.627Z,22.14
2017-07-10T13:02:24.323Z,22.37
2017-07-10T13:03:36.644Z,22.61
2017-07-10T13:04:49.514Z,22.76
2017-07-10T13:06:01.446Z,22.78
2017-07-10T13:07:13.800Z,22.95
2017-07-10T13:08:25.737Z,22.98
2017-07-10T13:09:37.709Z,23.02
2017-07-10T13:10:48.748Z,23.13
2017-07-10T13:12:00.114Z,23.11
2017-07-10T13:13:12.707Z,23.28
2017-07-10T13:14:24.649Z,23.18
2017-07-10T13:15:37.229Z,23.34
2017-07-10T13:16:49.535Z,23.34
2017-07-10T13:18:01.749Z,23.39
2017-07-10T13:19:14.077Z,23.44
2017-07-10T13:20:26.007Z,23.44
2017-07-10T13:21:38.610Z,23.4
2017-07-10T13:22:50.600Z,23.48
2017-07-10T13:24:02.842Z,23.44
2017-07-10T13:25:15.115Z,23.37
2017-07-10T13:26:27.060Z,23.39
2017-07-10T13:27:39.029Z,23.42
2017-07-10T13:28:50.406Z,23.34
2017-07-10T13:30:02.340Z,23.29
2017-07-10T13:31:14.343Z,23.25
2017-07-10T13:32:26.587Z,23.18
2017-07-10T13:33:38.870Z,23.23
2017-07-10T13:34:51.467Z,23.2
2017-07-10T13:36:03.456Z,23.2
2017-07-10T13:37:15.094Z,23.26
2017-07-10T13:38:27.824Z,23.18
2017-07-10T13:39:40.076Z,23.23
2017-07-10T13:40:52.312Z,23.14
2017-07-10T13:42:03.956Z,23.17
2017-07-10T13:43:15.913Z,23.18
2017-07-10T13:44:27.851Z,23.08
2017-07-10T13:45:40.494Z,23.18
2017-07-10T13:46:52.790Z,23.07
2017-07-10T13:48:04.728Z,23.01
2017-07-10T13:49:17.049Z,23.11
2017-07-10T13:50:29.634Z,23.06
2017-07-10T13:51:41.877Z,22.99
2017-07-10T13:52:54.162Z,23.01
2017-07-10T13:54:06.439Z,22.93
2017-07-10T13:55:18.405Z,22.99
2017-07-10T13:56:30.695Z,23.11
2017-07-10T13:57:42.970Z,23.11
2017-07-10T13:58:55.162Z,23.25
2017-07-10T14:00:07.456Z,23.32
2017-07-10T14:01:19.442Z,23.36
2017-07-10T14:02:32.049Z,23.25
2017-07-10T14:03:44.385Z,23.25
2017-07-10T14:04:57.058Z,23.42
2017-07-10T14:06:09.362Z,23.4
2017-07-10T14:07:21.944Z,23.34
2017-07-10T14:08:34.542Z,23.48
2017-07-10T14:09:47.105Z,23.4
2017-07-10T14:10:59.414Z,23.56
2017-07-10T14:12:11.765Z,23.59
2017-07-10T14:13:24.091Z,23.69
2017-07-10T14:14:36.749Z,23.79
2017-07-10T14:15:49.379Z,23.84
2017-07-10T14:17:01.668Z,23.77
2017-07-10T14:18:13.663Z,23.77
2017-07-10T14:19:26.255Z,23.84
2017-07-10T14:20:38.527Z,23.81
2017-07-10T14:21:50.771Z,23.71
2017-07-10T14:23:02.159Z,23.74
2017-07-10T14:24:13.781Z,23.66
2017-07-10T14:25:26.035Z,23.73
2017-07-10T14:26:38.292Z,23.54
2017-07-10T14:27:50.376Z,23.44
2017-07-10T14:29:02.682Z,23.47
2017-07-10T14:30:14.075Z,23.4
2017-07-10T14:31:26.356Z,23.39
2017-07-10T14:32:37.996Z,23.26
2017-07-10T14:33:49.013Z,23.29
2017-07-10T14:35:00.333Z,23.28
2017-07-10T14:36:11.709Z,23.28
2017-07-10T14:37:24.051Z,23.26
2017-07-10T14:38:36.637Z,23.34
2017-07-10T14:39:48.867Z,23.34
2017-07-10T14:41:01.189Z,23.48
2017-07-10T14:42:13.083Z,23.49
2017-07-10T14:43:25.060Z,23.7
2017-07-10T14:44:37.031Z,23.66
2017-07-10T14:45:49.648Z,23.63
2017-07-10T14:47:02.280Z,23.82
2017-07-10T14:48:14.835Z,23.76
2017-07-10T14:49:27.504Z,23.82
2017-07-10T14:50:39.775Z,23.71
2017-07-10T14:51:52.027Z,23.74
2017-07-10T14:53:03.967Z,23.82
2017-07-10T14:54:16.513Z,23.58
2017-07-10T14:55:29.108Z,23.56
2017-07-10T14:56:41.072Z,23.56
2017-07-10T14:57:53.343Z,23.48
2017-07-10T14:59:05.913Z,23.54
2017-07-10T15:00:18.149Z,23.59
2017-07-10T15:01:30.806Z,23.66
2017-07-10T15:02:42.716Z,23.58
2017-07-10T15:03:54.984Z,23.67
2017-07-10T15:05:07.593Z,23.73
2017-07-10T15:06:20.164Z,23.69
2017-07-10T15:07:32.183Z,23.67
2017-07-10T15:08:44.790Z,23.64
2017-07-10T15:09:57.027Z,23.63
2017-07-10T15:11:09.311Z,23.39
2017-07-10T15:12:21.365Z,23.36
2017-07-10T15:13:33.622Z,23.26
2017-07-10T15:14:45.250Z,23.23
2017-07-10T15:15:57.516Z,23.08
2017-07-10T15:17:10.090Z,23.07
2017-07-10T15:18:22.118Z,22.88
2017-07-10T15:19:34.734Z,22.77
2017-07-10T15:20:46.996Z,22.71
2017-07-10T15:21:58.973Z,22.52
2017-07-10T15:23:10.658Z,22.43
2017-07-10T15:24:22.049Z,22.43
2017-07-10T15:25:34.357Z,22.36
2017-07-10T15:26:46.652Z,22.36
2017-07-10T15:27:58.716Z,22.3
2017-07-10T15:29:11.320Z,22.19
2017-07-10T15:30:23.590Z,22.18
2017-07-10T15:31:35.541Z,22.07
2017-07-10T15:32:48.165Z,22.12
2017-07-10T15:34:00.146Z,22.08